PWSweather.com
Personal Weather Stations
Station Observations
KWABLAIN13
Ptl Weather, Blaine, WA

Ptl WeatherBlaine, WA

Lat: 48.997393, Lon: -122.748614

Elevation: 57

Station Type: Davis Advantage Pro 2

http://www.ptlnet.net

Latest ConditionsUpdated 10:00:03 AM PDT Thursday, Jul 24, 2014
Currently Today's Max Today's Min Today's Average
Temperature 55.9°F13.3°C 55.9°F13.3°C 54.8°F12.7°C 55.2°F12.9°C
Dew Point 54.8°F12.7°C 54.9°F12.7°C 53.4°F11.9°C 53.9°F12.2°C
Winds 2.0 mph S3.2 kmh S 9.0 mph SW14.5 kmh SW - 3.6 mph 5.8 kmh
Wind Gusts 7.0 mph11.3 kmh 12.0 mph19.3 kmh - -
Humidity 96% 97% 94% 96%
Pressure 30.08 in1018.6 mb 30.08 in1018.6 mb 30.00 in1015.9 mb -
Hour Temp Dew Point Humidity Winds Wind Gusts Pressure Precip Precip Rate Daily Precip Total
10:00 AM 55.9°F13.3°C 54.8°F12.7°C 96% 2.0 mph S3.2 kmh S 7.0 mph11.3 kmh 30.08 in1018.6 mb 0.01 in0.3 mm 0.01 in/hr0.3 mm/hr 0.13 in3.3 mm
09:55 AM 55.8°F13.2°C 54.7°F12.6°C 96% 2.0 mph SE3.2 kmh SE 7.0 mph11.3 kmh 30.08 in1018.6 mb 0.00 in0.0 mm 0.00 in/hr0.0 mm/hr 0.12 in3.0 mm
09:40 AM 55.6°F13.1°C 54.5°F12.5°C 96% 3.0 mph SSE4.8 kmh SSE 3.0 mph4.8 kmh 30.08 in1018.6 mb 0.00 in0.0 mm 0.00 in/hr0.0 mm/hr 0.12 in3.0 mm
09:35 AM 55.6°F13.1°C 54.5°F12.5°C 96% 7.0 mph SE11.3 kmh SE 7.0 mph11.3 kmh 30.08 in1018.6 mb 0.00 in0.0 mm 0.00 in/hr0.0 mm/hr 0.12 in3.0 mm
09:20 AM 55.7°F13.2°C 54.9°F12.7°C 97% 4.0 mph SSE6.4 kmh SSE 7.0 mph11.3 kmh 30.07 in1018.3 mb 0.00 in0.0 mm 0.00 in/hr0.0 mm/hr 0.12 in3.0 mm
09:15 AM 55.6°F13.1°C 54.8°F12.7°C 97% 4.0 mph SE6.4 kmh SE 6.0 mph9.7 kmh 30.07 in1018.3 mb 0.00 in0.0 mm 0.00 in/hr0.0 mm/hr 0.12 in3.0 mm
09:00 AM 55.4°F13.0°C 54.6°F12.6°C 97% 2.0 mph SE3.2 kmh SE 7.0 mph11.3 kmh 30.06 in1017.9 mb 0.01 in0.3 mm 0.00 in/hr0.0 mm/hr 0.12 in3.0 mm
08:55 AM 55.3°F12.9°C 54.2°F12.3°C 96% 5.0 mph SE8.0 kmh SE 7.0 mph11.3 kmh 30.06 in1017.9 mb 0.01 in0.3 mm 0.00 in/hr0.0 mm/hr 0.12 in3.0 mm
08:40 AM 55.2°F12.9°C 54.1°F12.3°C 96% 6.0 mph SSE9.7 kmh SSE 6.0 mph9.7 kmh 30.06 in1017.9 mb 0.02 in0.5 mm 0.00 in/hr0.0 mm/hr 0.12 in3.0 mm
08:35 AM 55.1°F12.8°C 54.3°F12.4°C 97% 2.0 mph SSE3.2 kmh SSE 6.0 mph9.7 kmh 30.05 in1017.6 mb 0.02 in0.5 mm 0.00 in/hr0.0 mm/hr 0.12 in3.0 mm
08:20 AM 55.1°F12.8°C 54.0°F12.2°C 96% 5.0 mph SE8.0 kmh SE 5.0 mph8.0 kmh 30.05 in1017.6 mb 0.02 in0.5 mm 0.00 in/hr0.0 mm/hr 0.12 in3.0 mm
08:15 AM 55.1°F12.8°C 54.0°F12.2°C 96% 4.0 mph SE6.4 kmh SE 6.0 mph9.7 kmh 30.05 in1017.6 mb 0.03 in0.8 mm 0.00 in/hr0.0 mm/hr 0.12 in3.0 mm
08:00 AM 55.1°F12.8°C 54.0°F12.2°C 96% 3.0 mph S4.8 kmh S 3.0 mph4.8 kmh 30.05 in1017.6 mb 0.03 in0.8 mm 0.00 in/hr0.0 mm/hr 0.12 in3.0 mm
07:55 AM 55.0°F12.8°C 53.9°F12.2°C 96% 3.0 mph SE4.8 kmh SE 7.0 mph11.3 kmh 30.04 in1017.3 mb 0.03 in0.8 mm 0.00 in/hr0.0 mm/hr 0.12 in3.0 mm
07:40 AM 55.0°F12.8°C 53.9°F12.2°C 96% 5.0 mph S8.0 kmh S 7.0 mph11.3 kmh 30.04 in1017.3 mb 0.04 in1.0 mm 0.00 in/hr0.0 mm/hr 0.12 in3.0 mm
07:35 AM 54.9°F12.7°C 53.8°F12.1°C 96% 3.0 mph SSW4.8 kmh SSW 7.0 mph11.3 kmh 30.04 in1017.3 mb 0.04 in1.0 mm 0.00 in/hr0.0 mm/hr 0.12 in3.0 mm
07:19 AM 55.0°F12.8°C 53.9°F12.2°C 96% 6.0 mph SSE9.7 kmh SSE 10.0 mph16.1 kmh 30.04 in1017.3 mb 0.04 in1.0 mm 0.15 in/hr3.8 mm/hr 0.12 in3.0 mm
07:15 AM 55.0°F12.8°C 53.9°F12.2°C 96% 5.0 mph SE8.0 kmh SE 10.0 mph16.1 kmh 30.04 in1017.3 mb 0.03 in0.8 mm 0.00 in/hr0.0 mm/hr 0.11 in2.8 mm
07:00 AM 55.0°F12.8°C 53.9°F12.2°C 96% 3.0 mph WSW4.8 kmh WSW 4.0 mph6.4 kmh 30.03 in1016.9 mb 0.03 in0.8 mm 0.01 in/hr0.3 mm/hr 0.11 in2.8 mm
06:55 AM 55.0°F12.8°C 53.9°F12.2°C 96% 1.0 mph S1.6 kmh S 8.0 mph12.9 kmh 30.03 in1016.9 mb 0.02 in0.5 mm 0.00 in/hr0.0 mm/hr 0.10 in2.5 mm
06:40 AM 55.0°F12.8°C 53.9°F12.2°C 96% 5.0 mph SSE8.0 kmh SSE 6.0 mph9.7 kmh 30.03 in1016.9 mb 0.03 in0.8 mm 0.00 in/hr0.0 mm/hr 0.10 in2.5 mm
06:35 AM 55.0°F12.8°C 53.9°F12.2°C 96% 9.0 mph SW14.5 kmh SW 12.0 mph19.3 kmh 30.03 in1016.9 mb 0.03 in0.8 mm 0.04 in/hr1.0 mm/hr 0.10 in2.5 mm
06:20 AM 55.1°F12.8°C 54.0°F12.2°C 96% 4.0 mph SE6.4 kmh SE 4.0 mph6.4 kmh 30.02 in1016.6 mb 0.02 in0.5 mm 0.00 in/hr0.0 mm/hr 0.09 in2.3 mm
06:15 AM 55.1°F12.8°C 54.0°F12.2°C 96% 5.0 mph S8.0 kmh S 7.0 mph11.3 kmh 30.02 in1016.6 mb 0.03 in0.8 mm 0.04 in/hr1.0 mm/hr 0.09 in2.3 mm
06:00 AM 55.1°F12.8°C 54.0°F12.2°C 96% 4.0 mph S6.4 kmh S 5.0 mph8.0 kmh 30.02 in1016.6 mb 0.02 in0.5 mm 0.00 in/hr0.0 mm/hr 0.08 in2.0 mm
05:55 AM 55.1°F12.8°C 54.0°F12.2°C 96% 2.0 mph SE3.2 kmh SE 3.0 mph4.8 kmh 30.02 in1016.6 mb 0.03 in0.8 mm 0.00 in/hr0.0 mm/hr 0.08 in2.0 mm
05:39 AM 55.1°F12.8°C 54.0°F12.2°C 96% 1.0 mph S1.6 kmh S 9.0 mph14.5 kmh 30.02 in1016.6 mb 0.03 in0.8 mm 0.00 in/hr0.0 mm/hr 0.08 in2.0 mm
05:35 AM 55.1°F12.8°C 54.0°F12.2°C 96% 1.0 mph SSW1.6 kmh SSW 6.0 mph9.7 kmh 30.02 in1016.6 mb 0.03 in0.8 mm 0.00 in/hr0.0 mm/hr 0.08 in2.0 mm
05:20 AM 55.0°F12.8°C 53.9°F12.2°C 96% 2.0 mph SSE3.2 kmh SSE 2.0 mph3.2 kmh 30.02 in1016.6 mb 0.04 in1.0 mm 0.12 in/hr3.0 mm/hr 0.08 in2.0 mm
05:15 AM 55.0°F12.8°C 53.9°F12.2°C 96% 1.0 mph SE1.6 kmh SE 6.0 mph9.7 kmh 30.02 in1016.6 mb 0.03 in0.8 mm 0.00 in/hr0.0 mm/hr 0.07 in1.8 mm
05:00 AM 55.1°F12.8°C 54.0°F12.2°C 96% 3.0 mph SE4.8 kmh SE 3.0 mph4.8 kmh 30.02 in1016.6 mb 0.04 in1.0 mm 0.00 in/hr0.0 mm/hr 0.07 in1.8 mm
04:55 AM 55.1°F12.8°C 54.0°F12.2°C 96% 2.0 mph SSE3.2 kmh SSE 4.0 mph6.4 kmh 30.02 in1016.6 mb 0.04 in1.0 mm 0.00 in/hr0.0 mm/hr 0.07 in1.8 mm
04:40 AM 55.1°F12.8°C 54.0°F12.2°C 96% 3.0 mph SE4.8 kmh SE 3.0 mph4.8 kmh 30.02 in1016.6 mb 0.04 in1.0 mm 0.00 in/hr0.0 mm/hr 0.07 in1.8 mm
04:34 AM 55.1°F12.8°C 53.7°F12.1°C 95% 2.0 mph SE3.2 kmh SE 5.0 mph8.0 kmh 30.02 in1016.6 mb 0.05 in1.3 mm 0.04 in/hr1.0 mm/hr 0.07 in1.8 mm
04:20 AM 55.1°F12.8°C 53.7°F12.1°C 95% 4.0 mph SE6.4 kmh SE 5.0 mph8.0 kmh 30.02 in1016.6 mb 0.04 in1.0 mm 0.00 in/hr0.0 mm/hr 0.06 in1.5 mm
04:15 AM 55.1°F12.8°C 53.7°F12.1°C 95% Calm Calm 4.0 mph6.4 kmh 30.02 in1016.6 mb 0.04 in1.0 mm 0.00 in/hr0.0 mm/hr 0.06 in1.5 mm
04:00 AM 55.2°F12.9°C 53.8°F12.1°C 95% 4.0 mph SE6.4 kmh SE 5.0 mph8.0 kmh 30.01 in1016.3 mb 0.05 in1.3 mm 0.00 in/hr0.0 mm/hr 0.06 in1.5 mm
03:55 AM 55.2°F12.9°C 53.8°F12.1°C 95% 2.0 mph SSE3.2 kmh SSE 5.0 mph8.0 kmh 30.01 in1016.3 mb 0.05 in1.3 mm 0.04 in/hr1.0 mm/hr 0.06 in1.5 mm
03:40 AM 55.3°F12.9°C 53.6°F12.0°C 94% 3.0 mph SE4.8 kmh SE 7.0 mph11.3 kmh 30.01 in1016.3 mb 0.04 in1.0 mm 0.12 in/hr3.0 mm/hr 0.05 in1.3 mm
03:35 AM 55.3°F12.9°C 53.6°F12.0°C 94% 5.0 mph SSE8.0 kmh SSE 7.0 mph11.3 kmh 30.01 in1016.3 mb 0.03 in0.8 mm 0.04 in/hr1.0 mm/hr 0.04 in1.0 mm
03:20 AM 55.4°F13.0°C 53.7°F12.1°C 94% 5.0 mph SE8.0 kmh SE 5.0 mph8.0 kmh 30.01 in1016.3 mb 0.02 in0.5 mm 0.00 in/hr0.0 mm/hr 0.03 in0.8 mm
03:15 AM 55.4°F13.0°C 53.7°F12.1°C 94% 2.0 mph S3.2 kmh S 10.0 mph16.1 kmh 30.01 in1016.3 mb 0.02 in0.5 mm 0.01 in/hr0.3 mm/hr 0.03 in0.8 mm
02:59 AM 55.4°F13.0°C 54.0°F12.2°C 95% 8.0 mph SSE12.9 kmh SSE 9.0 mph14.5 kmh 30.01 in1016.3 mb 0.01 in0.3 mm 0.03 in/hr0.8 mm/hr 0.02 in0.5 mm
02:39 AM 55.2°F12.9°C 53.8°F12.1°C 95% 4.0 mph SE6.4 kmh SE 7.0 mph11.3 kmh 30.01 in1016.3 mb 0.00 in0.0 mm 0.00 in/hr0.0 mm/hr 0.01 in0.3 mm
02:35 AM 55.2°F12.9°C 53.8°F12.1°C 95% 6.0 mph SE9.7 kmh SE 7.0 mph11.3 kmh 30.01 in1016.3 mb 0.00 in0.0 mm 0.00 in/hr0.0 mm/hr 0.01 in0.3 mm
02:15 AM 54.9°F12.7°C 53.5°F11.9°C 95% 5.0 mph SE8.0 kmh SE 7.0 mph11.3 kmh 30.01 in1016.3 mb 0.00 in0.0 mm 0.00 in/hr0.0 mm/hr 0.01 in0.3 mm
02:00 AM 54.8°F12.7°C 53.4°F11.9°C 95% 3.0 mph SE4.8 kmh SE 7.0 mph11.3 kmh 30.00 in1015.9 mb 0.00 in0.0 mm 0.00 in/hr0.0 mm/hr 0.01 in0.3 mm
01:55 AM 54.8°F12.7°C 53.4°F11.9°C 95% 2.0 mph SE3.2 kmh SE 7.0 mph11.3 kmh 30.00 in1015.9 mb 0.00 in0.0 mm 0.00 in/hr0.0 mm/hr 0.01 in0.3 mm
01:40 AM 54.8°F12.7°C 53.4°F11.9°C 95% 2.0 mph SE3.2 kmh SE 5.0 mph8.0 kmh 30.00 in1015.9 mb 0.00 in0.0 mm 0.00 in/hr0.0 mm/hr 0.01 in0.3 mm
01:35 AM 54.8°F12.7°C 53.4°F11.9°C 95% 3.0 mph SE4.8 kmh SE 5.0 mph8.0 kmh 30.00 in1015.9 mb 0.00 in0.0 mm 0.00 in/hr0.0 mm/hr 0.01 in0.3 mm
01:20 AM 54.9°F12.7°C 53.5°F11.9°C 95% 2.0 mph ESE3.2 kmh ESE 4.0 mph6.4 kmh 30.00 in1015.9 mb 0.00 in0.0 mm 0.00 in/hr0.0 mm/hr 0.01 in0.3 mm
01:15 AM 54.9°F12.7°C 53.5°F11.9°C 95% 3.0 mph SE4.8 kmh SE 3.0 mph4.8 kmh 30.00 in1015.9 mb 0.00 in0.0 mm 0.00 in/hr0.0 mm/hr 0.01 in0.3 mm
01:00 AM 55.0°F12.8°C 53.6°F12.0°C 95% 3.0 mph E4.8 kmh E 6.0 mph9.7 kmh 30.00 in1015.9 mb 0.00 in0.0 mm 0.00 in/hr0.0 mm/hr 0.01 in0.3 mm
12:55 AM 55.0°F12.8°C 53.6°F12.0°C 95% 2.0 mph E3.2 kmh E 6.0 mph9.7 kmh 30.00 in1015.9 mb 0.00 in0.0 mm 0.00 in/hr0.0 mm/hr 0.01 in0.3 mm
12:40 AM 55.1°F12.8°C 53.7°F12.1°C 95% 4.0 mph SE6.4 kmh SE 7.0 mph11.3 kmh 30.00 in1015.9 mb 0.00 in0.0 mm 0.00 in/hr0.0 mm/hr 0.01 in0.3 mm
12:35 AM 55.1°F12.8°C 53.7°F12.1°C 95% 6.0 mph E9.7 kmh E 6.0 mph9.7 kmh 30.00 in1015.9 mb 0.00 in0.0 mm 0.00 in/hr0.0 mm/hr 0.01 in0.3 mm
12:20 AM 55.2°F12.9°C 54.1°F12.3°C 96% 4.0 mph SE6.4 kmh SE 9.0 mph14.5 kmh 30.01 in1016.3 mb 0.00 in0.0 mm 0.00 in/hr0.0 mm/hr 0.01 in0.3 mm
12:15 AM 55.3°F12.9°C 54.2°F12.3°C 96% 6.0 mph SSE9.7 kmh SSE 9.0 mph14.5 kmh 30.01 in1016.3 mb 0.00 in0.0 mm 0.00 in/hr0.0 mm/hr 0.01 in0.3 mm
12:00 AM 55.3°F12.9°C 54.2°F12.3°C 96% 7.0 mph SE11.3 kmh SE 9.0 mph14.5 kmh 30.00 in1015.9 mb 0.01 in0.3 mm 0.00 in/hr0.0 mm/hr 0.01 in0.3 mm